Time;durP1;ratioP1;P1;durP2;ratioP2;P2;SDS_P1;SDS_P2;PMS_P1;PMS_P2;Temp;Humidity;BMP_temperature;BMP_pressure;BME280_temperature;BME280_humidity;BME280_pressure;Samples;Min_cycle;Max_cycle;Signal;HPM_P1;HPM_P2
2021/07/23 00:04:40;;;;;;;14.75;7.90;;;;;;;17.32;72.18;100596.19;20901938;28;20053;-72
2021/07/23 00:14:41;;;;;;;14.90;8.05;;;;;;;17.18;72.43;100594.09;20900866;28;20526;-74
2021/07/23 00:24:44;;;;;;;12.50;8.20;;;;;;;17.01;73.90;100599.22;20959608;28;20049;-74
2021/07/23 00:34:45;;;;;;;13.45;8.20;;;;;;;17.06;73.44;100593.75;20980617;28;20102;-73
2021/07/23 00:44:47;;;;;;;13.90;8.68;;;;;;;17.02;73.33;100590.34;20998446;28;20048;-73
2021/07/23 00:54:49;;;;;;;14.55;8.70;;;;;;;16.88;74.09;100587.38;20997026;28;20106;-72
2021/07/23 01:04:51;;;;;;;13.52;7.57;;;;;;;16.61;74.70;100583.97;20976910;28;20045;-73
2021/07/23 01:14:54;;;;;;;15.35;8.63;;;;;;;16.46;75.36;100581.91;20994616;28;20045;-72
2021/07/23 01:24:57;;;;;;;13.43;7.80;;;;;;;16.17;76.69;100579.41;20994812;28;20040;-73
2021/07/23 01:34:59;;;;;;;15.88;8.93;;;;;;;15.87;77.27;100586.63;20992398;28;20041;-72
2021/07/23 01:45:01;;;;;;;15.68;9.18;;;;;;;15.89;77.06;100581.28;20994782;28;20041;-72
2021/07/23 01:55:03;;;;;;;16.02;8.85;;;;;;;15.60;77.94;100562.00;20992623;28;20559;-72
2021/07/23 02:05:05;;;;;;;15.57;9.45;;;;;;;15.52;78.30;100564.03;20987284;28;20170;-72
2021/07/23 02:15:07;;;;;;;17.38;9.63;;;;;;;15.45;78.39;100551.94;21003832;28;20117;-71
2021/07/23 02:25:10;;;;;;;13.05;9.02;;;;;;;15.52;77.78;100545.56;20989332;28;20086;-73
2021/07/23 02:35:12;;;;;;;16.05;8.73;;;;;;;15.56;77.43;100544.53;20987783;28;20048;-73
2021/07/23 02:45:14;;;;;;;13.82;8.63;;;;;;;15.51;77.80;100541.19;20969827;28;20052;-73
2021/07/23 02:55:16;;;;;;;15.77;9.00;;;;;;;15.53;78.00;100538.50;21002291;28;20078;-73
2021/07/23 03:05:18;;;;;;;14.18;8.68;;;;;;;15.45;77.57;100525.56;20967662;28;20048;-73
2021/07/23 03:15:19;;;;;;;14.57;8.82;;;;;;;15.47;77.22;100523.72;20984473;28;20078;-73
2021/07/23 03:25:21;;;;;;;15.13;8.55;;;;;;;15.55;77.31;100516.41;20984769;28;20048;-72
2021/07/23 03:35:23;;;;;;;15.85;9.30;;;;;;;15.51;76.84;100509.53;20984090;28;20040;-73
2021/07/23 03:45:25;;;;;;;12.20;7.75;;;;;;;15.20;77.90;100508.84;20967270;28;20048;-73
2021/07/23 03:55:27;;;;;;;15.02;9.02;;;;;;;15.12;79.35;100527.53;20986563;28;20040;-72
2021/07/23 04:05:29;;;;;;;13.80;8.65;;;;;;;15.23;78.08;100514.84;20999272;28;20539;-72
2021/07/23 04:15:30;;;;;;;14.68;9.45;;;;;;;15.40;77.34;100519.59;20980963;28;20048;-71
2021/07/23 04:25:32;;;;;;;14.20;9.68;;;;;;;15.38;77.02;100529.34;20979521;28;20056;-72
2021/07/23 04:35:34;;;;;;;16.23;8.90;;;;;;;15.46;77.92;100529.94;20996872;28;20044;-72
2021/07/23 04:45:36;;;;;;;16.88;9.02;;;;;;;15.55;76.89;100540.16;20995337;28;20052;-72
2021/07/23 04:55:38;;;;;;;13.77;9.73;;;;;;;16.33;74.90;100537.41;20994492;28;20456;-73
2021/07/23 05:05:41;;;;;;;17.15;9.07;;;;;;;16.48;74.40;100535.13;20993386;28;20048;-71
2021/07/23 05:15:43;;;;;;;16.40;10.57;;;;;;;16.60;72.46;100538.16;20993769;28;20049;-73
2021/07/23 05:25:45;;;;;;;16.98;10.25;;;;;;;16.72;72.71;100538.63;20990937;28;20146;-71
2021/07/23 05:35:47;;;;;;;18.85;11.20;;;;;;;16.98;72.55;100542.91;20991008;28;20116;-72
2021/07/23 05:45:49;;;;;;;16.95;10.45;;;;;;;17.30;72.90;100531.03;20991146;28;20044;-73
2021/07/23 05:55:51;;;;;;;20.05;12.68;;;;;;;17.61;71.67;100531.44;20990053;28;20122;-73
2021/07/23 06:05:53;;;;;;;22.17;13.45;;;;;;;17.80;70.97;100533.34;20989319;28;20516;-72
2021/07/23 06:15:54;;;;;;;23.35;13.82;;;;;;;18.07;70.79;100524.19;20988248;28;20049;-72
2021/07/23 06:25:57;;;;;;;23.77;14.88;;;;;;;18.30;69.61;100524.91;20987078;28;20056;-72
2021/07/23 06:36:00;;;;;;;21.33;12.80;;;;;;;18.45;69.68;100516.28;20986978;28;20048;-71
2021/07/23 06:46:02;;;;;;;25.92;12.77;;;;;;;18.77;68.42;100524.53;20986104;28;20052;-72
2021/07/23 06:56:04;;;;;;;20.40;12.73;;;;;;;18.81;67.49;100521.66;20986214;28;20147;-72
2021/07/23 07:06:07;;;;;;;20.10;11.93;;;;;;;19.22;66.84;100524.09;20970621;28;20041;-72
2021/07/23 07:16:10;;;;;;;17.75;11.23;;;;;;;19.65;66.67;100520.19;20953037;28;20460;-71
2021/07/23 07:26:12;;;;;;;14.70;9.93;;;;;;;19.68;66.37;100524.47;20920873;28;20118;-72
2021/07/23 07:36:17;;;;;;;16.02;8.48;;;;;;;20.28;64.07;100510.69;20906416;28;20109;-72
2021/07/23 07:46:19;;;;;;;15.70;8.95;;;;;;;20.49;64.11;100497.09;20983522;28;20067;-72
2021/07/23 07:56:20;;;;;;;16.45;9.02;;;;;;;21.01;63.11;100488.81;20983018;28;20080;-72
2021/07/23 08:06:30;;;;;;;16.33;8.32;;;;;;;21.11;61.67;100486.50;20982707;28;20718;-72
2021/07/23 08:16:32;;;;;;;15.88;8.10;;;;;;;21.44;58.09;100485.50;20926378;28;20056;-71
2021/07/23 08:26:35;;;;;;;12.43;8.23;;;;;;;21.82;55.27;100469.00;20900023;28;20045;-74
2021/07/23 08:36:36;;;;;;;13.50;8.23;;;;;;;22.23;53.40;100453.09;20901228;28;20045;-73
2021/07/23 08:46:38;;;;;;;13.48;8.20;;;;;;;22.28;54.45;100459.88;20911747;28;20053;-73
2021/07/23 08:56:47;;;;;;;13.65;8.32;;;;;;;22.65;54.40;100451.31;20914264;28;20418;-73
2021/07/23 09:07:14;;;;;;;14.63;9.15;;;;;;;22.99;52.19;100447.31;20913256;28;20053;-73
2021/07/23 09:17:16;;;;;;;13.82;7.95;;;;;;;23.10;50.86;100452.81;20973599;28;20056;-73
2021/07/23 09:27:34;;;;;;;16.70;8.43;;;;;;;23.57;50.29;100446.00;20974801;28;20052;-73
2021/07/23 09:37:56;;;;;;;11.32;7.43;;;;;;;24.12;49.13;100428.81;20952432;28;20120;-74
2021/07/23 09:48:08;;;;;;;12.93;7.95;;;;;;;24.03;46.76;100418.75;20909752;28;20426;-72
2021/07/23 09:58:11;;;;;;;13.85;7.72;;;;;;;24.78;44.98;100410.63;20909405;28;20083;-74
2021/07/23 10:08:21;;;;;;;16.17;8.50;;;;;;;24.70;43.48;100400.47;20908006;28;20045;-74
2021/07/23 10:18:23;;;;;;;14.15;7.93;;;;;;;24.77;44.57;100388.38;20980157;28;20117;-73
2021/07/23 10:28:42;;;;;;;10.45;7.20;;;;;;;24.89;43.75;100369.66;20990824;28;20399;-74
2021/07/23 10:38:44;;;;;;;10.95;6.55;;;;;;;25.27;42.53;100359.56;20989490;28;20044;-75
2021/07/23 10:48:48;;;;;;;11.30;7.20;;;;;;;25.22;42.38;100351.00;20972549;28;20052;-74
2021/07/23 10:58:49;;;;;;;;;;;;;;;24.86;40.90;100327.00;20989357;28;20111;-74
2021/07/23 11:08:58;;;;;;;11.70;7.85;;;;;;;25.44;38.99;100310.00;20986617;28;19921;-74
2021/07/23 11:19:00;;;;;;;9.90;7.20;;;;;;;25.50;36.22;100300.59;20899090;28;20040;-74
2021/07/23 11:29:03;;;;;;;11.60;7.68;;;;;;;25.65;38.53;100285.97;20989316;28;20105;-74
2021/07/23 11:39:08;;;;;;;10.93;7.38;;;;;;;25.98;35.82;100278.88;20968294;28;20098;-74
2021/07/23 11:49:10;;;;;;;12.10;8.75;;;;;;;25.95;34.61;100274.59;20986677;28;20045;-74
2021/07/23 11:59:12;;;;;;;12.70;8.27;;;;;;;26.25;37.13;100265.84;20986641;28;20049;-74
2021/07/23 12:09:14;;;;;;;12.35;8.55;;;;;;;26.32;35.01;100245.56;20967248;28;20040;-74
2021/07/23 12:19:19;;;;;;;12.85;7.90;;;;;;;26.10;37.37;100240.28;20911814;28;20048;-74
2021/07/23 12:29:37;;;;;;;12.63;8.18;;;;;;;26.16;38.02;100228.19;20977840;28;20052;-75
2021/07/23 12:39:52;;;;;;;12.68;9.18;;;;;;;26.20;38.29;100208.16;20981761;28;20044;-74
2021/07/23 12:49:56;;;;;;;13.40;8.63;;;;;;;26.53;38.23;100193.75;20995136;28;20387;-74
2021/07/23 13:00:20;;;;;;;14.38;9.10;;;;;;;26.58;38.51;100186.13;20998255;28;20102;-74
2021/07/23 13:10:22;;;;;;;12.63;8.90;;;;;;;26.48;38.62;100179.84;20996021;28;20098;-75
2021/07/23 13:20:24;;;;;;;14.23;9.25;;;;;;;27.06;38.88;100155.97;20978253;28;20487;-75
2021/07/23 13:30:26;;;;;;;12.52;8.32;;;;;;;26.93;38.55;100144.63;20994101;28;20396;-75
2021/07/23 13:40:28;;;;;;;11.80;8.13;;;;;;;26.95;39.08;100139.97;20993867;28;20455;-75
2021/07/23 13:50:31;;;;;;;14.73;9.00;;;;;;;27.39;38.44;100124.41;20993130;28;20080;-75
2021/07/23 14:00:33;;;;;;;12.77;8.93;;;;;;;27.23;37.68;100117.75;20992763;28;20041;-75
2021/07/23 14:10:47;;;;;;;12.52;8.73;;;;;;;27.17;37.98;100112.91;20981890;28;20049;-75
2021/07/23 14:20:49;;;;;;;13.23;8.98;;;;;;;27.57;37.25;100101.22;20945697;28;20053;-75
2021/07/23 14:30:51;;;;;;;13.77;9.00;;;;;;;27.44;37.54;100100.66;20990352;28;20631;-75
2021/07/23 14:40:55;;;;;;;13.73;9.55;;;;;;;27.69;37.02;100092.00;20989405;28;20505;-75
2021/07/23 14:50:57;;;;;;;13.10;8.65;;;;;;;27.62;37.77;100077.44;20988744;28;20052;-75
2021/07/23 15:00:59;;;;;;;14.23;8.68;;;;;;;28.11;37.00;100070.19;20969382;28;20060;-75
2021/07/23 15:11:02;;;;;;;12.15;8.43;;;;;;;27.82;38.09;100064.88;20969408;28;20083;-75
2021/07/23 15:21:06;;;;;;;12.00;9.35;;;;;;;27.76;37.75;100055.53;20969644;28;20079;-75
2021/07/23 15:31:09;;;;;;;13.87;9.13;;;;;;;27.68;37.81;100041.91;20985998;28;20051;-76
2021/07/23 15:41:11;;;;;;;11.87;8.70;;;;;;;27.77;37.35;100040.22;20968631;28;20052;-76
2021/07/23 15:51:14;;;;;;;16.13;9.45;;;;;;;27.73;37.35;100034.28;20965573;28;20049;-77
2021/07/23 16:01:15;;;;;;;12.23;9.13;;;;;;;27.94;38.37;100035.97;20919961;28;20044;-76
2021/07/23 16:11:22;;;;;;;15.63;8.45;;;;;;;28.07;36.72;100026.56;20917838;28;20053;-76
2021/07/23 16:21:26;;;;;;;14.07;8.93;;;;;;;27.92;37.86;100011.03;20919604;28;20053;-76
2021/07/23 16:31:29;;;;;;;14.05;8.57;;;;;;;27.72;38.38;99994.94;20917224;28;20052;-76
2021/07/23 16:41:31;;;;;;;12.98;9.73;;;;;;;27.71;38.20;99987.84;20917865;28;20045;-76
2021/07/23 16:51:33;;;;;;;12.55;9.02;;;;;;;27.39;39.57;99976.53;20900085;28;20041;-75
2021/07/23 17:01:35;;;;;;;13.30;8.32;;;;;;;27.56;38.24;99967.75;20899530;28;20053;-76
2021/07/23 17:11:37;;;;;;;15.88;9.15;;;;;;;27.39;39.06;99955.88;20898191;28;20052;-75
2021/07/23 17:21:39;;;;;;;13.30;8.70;;;;;;;27.60;38.93;99953.03;20915328;28;20123;-76
2021/07/23 17:31:41;;;;;;;15.20;9.00;;;;;;;27.57;38.82;99943.38;20914039;28;20102;-75
2021/07/23 17:41:43;;;;;;;16.30;8.65;;;;;;;27.69;37.62;99940.53;20961028;28;20067;-75
2021/07/23 17:51:46;;;;;;;16.48;9.00;;;;;;;27.38;38.95;99918.38;21022922;28;20064;-75
2021/07/23 18:01:48;;;;;;;16.77;9.70;;;;;;;27.34;39.24;99920.50;21017435;28;20048;-75
2021/07/23 18:11:52;;;;;;;17.90;9.65;;;;;;;27.21;40.91;99912.72;21013739;28;20044;-75
2021/07/23 18:21:54;;;;;;;14.13;9.85;;;;;;;26.90;41.14;99898.56;21025148;28;20444;-74
2021/07/23 18:31:55;;;;;;;18.45;9.15;;;;;;;26.41;43.55;99907.53;21020572;28;20430;-74
2021/07/23 18:41:57;;;;;;;21.60;10.75;;;;;;;25.86;42.50;99893.59;21037543;28;20044;-74
2021/07/23 18:51:58;;;;;;;15.27;9.18;;;;;;;25.55;43.25;99896.25;21000065;28;20044;-74
2021/07/23 19:02:02;;;;;;;14.75;9.02;;;;;;;25.13;47.64;99906.13;21047663;28;20048;-73
2021/07/23 19:12:05;;;;;;;12.43;8.30;;;;;;;24.57;49.23;99905.28;21000291;28;20052;-73
2021/07/23 19:22:08;;;;;;;14.18;9.48;;;;;;;24.04;51.52;99914.94;20992291;28;20044;-75
2021/07/23 19:32:10;;;;;;;15.35;9.13;;;;;;;23.47;51.94;99924.69;21025613;28;20413;-74
2021/07/23 19:42:12;;;;;;;13.43;8.52;;;;;;;23.10;50.68;99937.34;20996371;28;20110;-74
2021/07/23 19:52:14;;;;;;;13.13;8.40;;;;;;;22.87;52.62;99922.16;21024296;28;20459;-76
2021/07/23 20:02:15;;;;;;;14.65;9.05;;;;;;;22.65;52.62;99926.41;20982984;28;20559;-75
2021/07/23 20:12:18;;;;;;;13.65;8.32;;;;;;;22.76;50.88;99926.47;20945217;28;20491;-75
2021/07/23 20:22:19;;;;;;;12.65;9.20;;;;;;;22.72;50.81;99916.16;20883044;28;20132;-74
2021/07/23 20:32:21;;;;;;;13.60;8.68;;;;;;;22.32;53.56;99919.03;20897706;28;20080;-74
2021/07/23 20:42:22;;;;;;;16.20;9.35;;;;;;;22.13;52.79;99919.50;20909115;28;20056;-74
2021/07/23 20:52:24;;;;;;;15.90;9.80;;;;;;;21.74;54.33;99923.97;20915843;28;20094;-74
2021/07/23 21:02:26;;;;;;;13.77;9.68;;;;;;;21.55;55.79;99923.56;20904515;28;20045;-74
2021/07/23 21:12:28;;;;;;;17.85;10.30;;;;;;;21.17;56.87;99899.50;20933355;28;20078;-74
2021/07/23 21:22:32;;;;;;;16.58;9.75;;;;;;;21.29;56.19;99911.16;20995143;28;20436;-74
2021/07/23 21:32:33;;;;;;;18.52;10.25;;;;;;;21.14;56.86;99913.88;20994269;28;20040;-73
2021/07/23 21:42:35;;;;;;;16.20;9.90;;;;;;;20.87;58.49;99905.06;20976662;28;20054;-73
2021/07/23 21:52:37;;;;;;;18.98;10.50;;;;;;;20.88;58.17;99901.47;20993355;28;20102;-72
2021/07/23 22:02:39;;;;;;;21.63;12.45;;;;;;;20.74;58.60;99905.03;20974730;28;20074;-72
2021/07/23 22:12:41;;;;;;;17.73;12.18;;;;;;;20.52;59.28;99910.91;20991286;28;20552;-72
2021/07/23 22:22:43;;;;;;;21.42;11.55;;;;;;;20.37;60.15;99904.75;20990545;28;20048;-72
2021/07/23 22:32:44;;;;;;;19.70;11.93;;;;;;;20.19;61.60;99885.50;20988965;28;20521;-72
2021/07/23 22:42:46;;;;;;;21.00;12.18;;;;;;;19.89;62.24;99879.47;20970949;28;20159;-72
2021/07/23 22:52:48;;;;;;;19.27;12.38;;;;;;;19.91;61.97;99866.94;20987798;28;20487;-72
2021/07/23 23:02:50;;;;;;;20.52;13.15;;;;;;;19.70;63.02;99862.00;20987711;28;20702;-72
2021/07/23 23:12:52;;;;;;;18.58;11.80;;;;;;;19.62;63.54;99844.84;20970018;28;20057;-72
2021/07/23 23:22:53;;;;;;;22.42;12.00;;;;;;;19.70;63.09;99827.47;20986311;28;20402;-72
2021/07/23 23:32:56;;;;;;;24.33;13.18;;;;;;;19.68;63.39;99832.00;20985028;28;20113;-72
2021/07/23 23:42:58;;;;;;;20.02;12.02;;;;;;;19.58;63.85;99812.25;20985506;28;20106;-72
2021/07/23 23:53:00;;;;;;;21.30;12.80;;;;;;;19.31;65.38;99808.69;20985207;28;20301;-73
